MSC Lorena — 3EB09 — position and weather

sailwx.info

Track history (hours):
 
Tides and Currents Weather Stations Pressure Air Temp Water Temp Dewpoint Dewpoint Depression Visibility Wind Speed Wind Dir Waves Ship Positions

MSC Lorena

Last reported at 2018-Feb-04 04:44 UTC. Time now 2018-Feb-20 13:51 UTC.
Position N 01°18' E 103°21'.
Warning: this ship's position is 16 days out of date.

Length 275 m; draft 12.2 m.

Type: Ship (hazmat cat A). MMSI: 371860000.

Date/timePositionNaut miles runAvg speedWind from/ knotsBaromVisibWave heightAir tempDewpointWater temp
2018-Feb-04 04:44N 01°18' E 103°21'620.0
2018-Feb-04 04:25N 01°15' E 103°26'820.0
2018-Feb-04 04:00N 01°12' E 103°34'612.6
2018-Feb-04 03:30N 01°13' E 103°40'612.5
2018-Feb-04 03:00N 01°16' E 103°45'1 1.2
2018-Feb-04 02:25N 01°16' E 103°46'0 0.0
2018-Feb-04 02:01N 01°16' E 103°46'0 0.0
2018-Feb-04 01:30N 01°16' E 103°46'0 0.0
2018-Feb-04 01:00N 01°16' E 103°46'0 0.0
2018-Feb-04 00:30N 01°16' E 103°46'0 0.0
2018-Feb-04 00:00N 01°16' E 103°46'0 0.0
2018-Feb-03 23:30N 01°16' E 103°46'0 0.0
2018-Feb-03 22:57N 01°16' E 103°46'0 0.0
2018-Feb-03 22:31N 01°16' E 103°46'0 0.0
2018-Feb-03 22:01N 01°16' E 103°46'0 0.0
2018-Feb-03 21:31N 01°16' E 103°46'0 0.0
2018-Feb-03 21:00N 01°16' E 103°46'0 0.0
2018-Feb-03 20:30N 01°16' E 103°46'0 0.0
2018-Feb-03 20:01N 01°16' E 103°46'0 0.0
2018-Feb-03 18:30N 01°16' E 103°46'0 0.0
2018-Feb-03 18:00N 01°16' E 103°46'0 0.0
2018-Feb-03 17:30N 01°16' E 103°46'0 0.0
2018-Feb-03 17:00N 01°16' E 103°46'0 0.0
2018-Feb-03 16:00N 01°16' E 103°46'0 0.0
2018-Feb-03 15:27N 01°16' E 103°46'0 0.0
2018-Feb-03 15:00N 01°16' E 103°46'0 0.0
2018-Feb-03 14:30N 01°16' E 103°46'0 0.0
2018-Feb-03 14:00N 01°16' E 103°46'0 0.0
2018-Feb-03 13:30N 01°16' E 103°46'0 0.0
2018-Feb-03 13:00N 01°16' E 103°46'0 0.0
2018-Feb-03 12:18N 01°16' E 103°46'0 0.0
2018-Feb-03 12:00N 01°16' E 103°46'0 0.0
2018-Feb-03 11:30N 01°16' E 103°46'0 0.0
2018-Feb-03 11:00N 01°16' E 103°46'0 0.0
2018-Feb-03 10:30N 01°16' E 103°46'0 0.0
2018-Feb-03 10:00N 01°16' E 103°46'0 0.0
2018-Feb-03 09:30N 01°16' E 103°46'0 0.0
2018-Feb-03 09:00N 01°16' E 103°46'0 0.0
2018-Feb-03 08:30N 01°16' E 103°46'0 0.0
2018-Feb-03 08:00N 01°16' E 103°46'0 0.0
2018-Feb-03 06:27N 01°16' E 103°46'0 0.0
2018-Feb-03 06:00N 01°16' E 103°46'0 0.0
2018-Feb-03 05:30N 01°16' E 103°46'0 0.0
2018-Feb-03 05:00N 01°16' E 103°46'0 0.0
2018-Feb-03 04:00N 01°16' E 103°46'0 0.0
2018-Feb-03 03:30N 01°16' E 103°46'0 0.0
2018-Feb-03 02:00N 01°16' E 103°46'0 0.4
2018-Feb-03 01:30N 01°16' E 103°46'3 6.6
2018-Feb-03 01:00N 01°13' E 103°48'611.1
2018-Feb-03 00:30N 01°13' E 103°53'4 7.6
2018-Feb-02 23:59N 01°15' E 103°57'4 9.2
2018-Feb-02 23:30N 01°16' E 104°01'6 9.9
2018-Feb-02 22:56N 01°16' E 104°07'  
2018-Jan-25 10:36N 30°58' E 122°35'110.4
2018-Jan-25 10:28N 30°59' E 122°33'6 9.7
2018-Jan-25 09:50N 31°00' E 122°26'410.2
2018-Jan-25 09:29N 31°01' E 122°22'510.1
2018-Jan-25 09:00N 31°02' E 122°16'610.8
2018-Jan-25 08:27N 31°03' E 122°10'4 8.1
2018-Jan-25 07:58N 31°04' E 122°05'2 4.1
2018-Jan-25 07:24N 31°04' E 122°02'2 5.4
2018-Jan-25 07:00N 31°05' E 122°00'4 7.7
2018-Jan-25 06:31N 31°07' E 121°56'611.6
2018-Jan-25 06:01N 31°11' E 121°51'612.5
2018-Jan-25 05:30N 31°15' E 121°46'  
Track history (hours):
 
Tides and Currents Weather Stations Pressure Air Temp Water Temp Dewpoint Dewpoint Depression Visibility Wind Speed Wind Dir Waves Ship Positions

MSC Lorena

Last reported at 2018-Feb-04 04:44 UTC. Time now 2018-Feb-20 13:51 UTC.
Position N 01°18' E 103°21'.
Warning: this ship's position is 16 days out of date.

Length 275 m; draft 12.2 m.

Type: Ship (hazmat cat A). MMSI: 371860000.

Date/timePositionNaut miles runAvg speedWind from/ knotsBaromVisibWave heightAir tempDewpointWater temp
2018-Feb-04 04:44N 01°18' E 103°21'620.0
2018-Feb-04 04:25N 01°15' E 103°26'820.0
2018-Feb-04 04:00N 01°12' E 103°34'612.6
2018-Feb-04 03:30N 01°13' E 103°40'612.5
2018-Feb-04 03:00N 01°16' E 103°45'1 1.2
2018-Feb-04 02:25N 01°16' E 103°46'0 0.0
2018-Feb-04 02:01N 01°16' E 103°46'0 0.0
2018-Feb-04 01:30N 01°16' E 103°46'0 0.0
2018-Feb-04 01:00N 01°16' E 103°46'0 0.0
2018-Feb-04 00:30N 01°16' E 103°46'0 0.0
2018-Feb-04 00:00N 01°16' E 103°46'0 0.0
2018-Feb-03 23:30N 01°16' E 103°46'0 0.0
2018-Feb-03 22:57N 01°16' E 103°46'0 0.0
2018-Feb-03 22:31N 01°16' E 103°46'0 0.0
2018-Feb-03 22:01N 01°16' E 103°46'0 0.0
2018-Feb-03 21:31N 01°16' E 103°46'0 0.0
2018-Feb-03 21:00N 01°16' E 103°46'0 0.0
2018-Feb-03 20:30N 01°16' E 103°46'0 0.0
2018-Feb-03 20:01N 01°16' E 103°46'0 0.0
2018-Feb-03 18:30N 01°16' E 103°46'0 0.0
2018-Feb-03 18:00N 01°16' E 103°46'0 0.0
2018-Feb-03 17:30N 01°16' E 103°46'0 0.0
2018-Feb-03 17:00N 01°16' E 103°46'0 0.0
2018-Feb-03 16:00N 01°16' E 103°46'0 0.0
2018-Feb-03 15:27N 01°16' E 103°46'0 0.0
2018-Feb-03 15:00N 01°16' E 103°46'0 0.0
2018-Feb-03 14:30N 01°16' E 103°46'0 0.0
2018-Feb-03 14:00N 01°16' E 103°46'0 0.0
2018-Feb-03 13:30N 01°16' E 103°46'0 0.0
2018-Feb-03 13:00N 01°16' E 103°46'0 0.0
2018-Feb-03 12:18N 01°16' E 103°46'0 0.0
2018-Feb-03 12:00N 01°16' E 103°46'0 0.0
2018-Feb-03 11:30N 01°16' E 103°46'0 0.0
2018-Feb-03 11:00N 01°16' E 103°46'0 0.0
2018-Feb-03 10:30N 01°16' E 103°46'0 0.0
2018-Feb-03 10:00N 01°16' E 103°46'0 0.0
2018-Feb-03 09:30N 01°16' E 103°46'0 0.0
2018-Feb-03 09:00N 01°16' E 103°46'0 0.0
2018-Feb-03 08:30N 01°16' E 103°46'0 0.0
2018-Feb-03 08:00N 01°16' E 103°46'0 0.0
2018-Feb-03 06:27N 01°16' E 103°46'0 0.0
2018-Feb-03 06:00N 01°16' E 103°46'0 0.0
2018-Feb-03 05:30N 01°16' E 103°46'0 0.0
2018-Feb-03 05:00N 01°16' E 103°46'0 0.0
2018-Feb-03 04:00N 01°16' E 103°46'0 0.0
2018-Feb-03 03:30N 01°16' E 103°46'0 0.0
2018-Feb-03 02:00N 01°16' E 103°46'0 0.4
2018-Feb-03 01:30N 01°16' E 103°46'3 6.6
2018-Feb-03 01:00N 01°13' E 103°48'611.1
2018-Feb-03 00:30N 01°13' E 103°53'4 7.6
2018-Feb-02 23:59N 01°15' E 103°57'4 9.2
2018-Feb-02 23:30N 01°16' E 104°01'6 9.9
2018-Feb-02 22:56N 01°16' E 104°07'  
2018-Jan-25 10:36N 30°58' E 122°35'110.4
2018-Jan-25 10:28N 30°59' E 122°33'6 9.7
2018-Jan-25 09:50N 31°00' E 122°26'410.2
2018-Jan-25 09:29N 31°01' E 122°22'510.1
2018-Jan-25 09:00N 31°02' E 122°16'610.8
2018-Jan-25 08:27N 31°03' E 122°10'4 8.1
2018-Jan-25 07:58N 31°04' E 122°05'2 4.1
2018-Jan-25 07:24N 31°04' E 122°02'2 5.4
2018-Jan-25 07:00N 31°05' E 122°00'4 7.7
2018-Jan-25 06:31N 31°07' E 121°56'611.6
2018-Jan-25 06:01N 31°11' E 121°51'612.5
2018-Jan-25 05:30N 31°15' E 121°46'  

Dump ship's entire track history